Atlantic Beach, FL (32233)

9:27 AM EDT on July 30, 2016 (GMT -0400)
Reed Island | | Change Station

Elev 10 ft 30.39 °N, 81.52 °W | Updated 12 seconds ago

Clear
Clear
85.8 °F
Feels Like 94 °F
N
0.9
Wind Variable Wind from West
Gusts 2.0 mph

Today
High -- | Low -- °F
--% Chance of Precip.
Yesterday
High -- | Low -- °F
Precip. -- in
Pressure 30.06 in
Visibility 10.0 miles
Clouds Clear
Heat Index 94 °F
Dew Point 74 °F
Humidity 69%
Rainfall 0.00 in
Snow Depth Not available.
6:43 AM 8:21 PM
Waning Crescent, 13% visible
METAR KCRG 301253Z 30007KT 10SM CLR 30/24 A3007 RMK AO2 SLP180 T03000239
Pressure 30.06 in
Visibility 10.0 miles
Clouds Clear
Heat Index 94 °F
Dew Point 74 °F
Humidity 69%
Rainfall 0.00 in
Snow Depth Not available.
6:43 AM 8:21 PM
Waning Crescent, 13% visible
METAR KCRG 301253Z 30007KT 10SM CLR 30/24 A3007 RMK AO2 SLP180 T03000239

10-Day Weather Forecast

Almanac

Astronomy

Jul. 30, 2016 Rise Set
Actual Time
Civil Twilight
Nautical Twilight
Astronomical Twilight
Moon
Length of Visible Light
Length of Day
Tomorrow will be .
, % of the Moon is Illuminated

Today's Extremes

State Highs State Lows

Community

WunderPhotos

Upload Photos

1,928,556 photos uploaded!

WunderBlog® & News

Nearby

Air Quality

  Air Quality AQ Index Pollutant
Not available.

Snow Depth

Station Depth Elevation

Earthquake Activity

City Distance Mag. Time & Date
Minimum magnitude displayed is 2.5.

Coastal Water Temperatures

Place Temperature

Stations

Nearby Weather Stations

Station Location Temp. Windchill Dew Point Humidity Wind Precip. Elev Updated Type
                   

Watches & Warnings

There are currently no watches in effect.